createdAt,value
2022-12-16T00:01:17.258Z,21.30
2022-12-16T00:03:51.925Z,23.60
2022-12-16T00:06:21.539Z,22.90
2022-12-16T00:08:49.054Z,21.40
2022-12-16T00:11:16.362Z,22.07
2022-12-16T00:13:44.070Z,20.57
2022-12-16T00:16:15.105Z,22.47
2022-12-16T00:18:43.391Z,21.67
2022-12-16T00:21:11.412Z,20.13
2022-12-16T00:23:39.546Z,21.43
2022-12-16T00:26:07.444Z,20.63
2022-12-16T00:28:35.862Z,20.87
2022-12-16T00:31:04.220Z,20.57
2022-12-16T00:33:32.274Z,19.00
2022-12-16T00:35:59.965Z,20.10
2022-12-16T00:38:27.695Z,19.50
2022-12-16T00:40:55.151Z,18.93
2022-12-16T00:43:22.781Z,19.63
2022-12-16T00:45:51.903Z,18.93
2022-12-16T00:48:23.304Z,18.60
2022-12-16T00:50:55.030Z,19.43
2022-12-16T00:53:24.874Z,18.80
2022-12-16T00:56:18.368Z,21.00
2022-12-16T00:58:46.883Z,19.10
2022-12-16T01:01:15.129Z,19.70
2022-12-16T01:03:42.914Z,19.70
2022-12-16T01:06:14.615Z,21.17
2022-12-16T01:08:48.617Z,22.07
2022-12-16T01:11:19.185Z,20.37
2022-12-16T01:13:51.063Z,21.23
2022-12-16T01:16:19.936Z,21.93
2022-12-16T01:18:47.632Z,20.80
2022-12-16T01:21:15.769Z,21.07
2022-12-16T01:23:44.023Z,19.67
2022-12-16T01:26:18.745Z,20.00
2022-12-16T01:28:49.387Z,20.23
2022-12-16T01:31:21.396Z,19.50
2022-12-16T01:33:49.169Z,20.37
2022-12-16T01:36:17.346Z,19.50
2022-12-16T01:38:45.088Z,19.53
2022-12-16T01:41:15.472Z,20.17
2022-12-16T01:43:45.004Z,19.43
2022-12-16T01:46:12.444Z,18.10
2022-12-16T01:49:01.508Z,19.47
2022-12-16T01:51:37.712Z,19.53
2022-12-16T01:54:19.660Z,18.83
2022-12-16T01:56:55.617Z,19.83
2022-12-16T01:59:26.293Z,19.63
2022-12-16T02:01:54.216Z,19.07
2022-12-16T02:04:21.992Z,18.87
2022-12-16T02:06:49.787Z,18.90
2022-12-16T02:09:18.059Z,18.60
2022-12-16T02:12:08.063Z,18.30
2022-12-16T02:14:45.753Z,17.73
2022-12-16T02:17:33.289Z,17.60
2022-12-16T02:20:25.667Z,17.97
2022-12-16T02:23:56.603Z,18.77
2022-12-16T02:26:55.105Z,17.67
2022-12-16T02:30:19.013Z,19.30
2022-12-16T02:32:48.990Z,16.93
2022-12-16T02:35:28.144Z,17.43
2022-12-16T02:38:36.051Z,17.33
2022-12-16T02:41:28.286Z,17.30
2022-12-16T02:44:04.093Z,17.97
2022-12-16T02:46:34.227Z,17.17
2022-12-16T02:49:29.267Z,18.13
2022-12-16T02:52:00.056Z,17.80
2022-12-16T02:54:29.033Z,17.70
2022-12-16T02:57:26.501Z,19.90
2022-12-16T03:00:09.443Z,19.07
2022-12-16T03:03:02.000Z,18.33
2022-12-16T03:05:38.885Z,18.43
2022-12-16T03:08:13.739Z,18.63
2022-12-16T03:10:45.737Z,17.93
2022-12-16T03:13:14.787Z,19.57
2022-12-16T03:15:43.171Z,18.97
2022-12-16T03:18:12.502Z,20.23
2022-12-16T03:20:47.112Z,17.87
2022-12-16T03:23:28.420Z,19.83
2022-12-16T03:26:05.270Z,19.60
2022-12-16T03:29:26.383Z,19.53
2022-12-16T03:32:02.137Z,20.33
2022-12-16T03:35:13.604Z,19.93
2022-12-16T03:37:43.460Z,21.83
2022-12-16T03:40:12.328Z,19.80
2022-12-16T03:42:40.412Z,20.30
2022-12-16T03:45:12.882Z,21.20
2022-12-16T03:47:40.206Z,20.87
2022-12-16T03:50:07.736Z,20.27
2022-12-16T03:52:35.288Z,20.80
2022-12-16T03:55:02.749Z,21.87
2022-12-16T03:57:29.970Z,20.60
2022-12-16T03:59:57.325Z,21.90
2022-12-16T04:02:24.625Z,20.70
2022-12-16T04:04:51.957Z,21.30
2022-12-16T04:07:21.984Z,22.23
2022-12-16T04:09:50.829Z,22.67
2022-12-16T04:12:37.885Z,23.33
2022-12-16T04:15:25.348Z,22.37
2022-12-16T04:18:11.365Z,22.27
2022-12-16T04:21:02.651Z,22.50
2022-12-16T04:23:50.899Z,22.47
2022-12-16T04:26:18.109Z,21.70
2022-12-16T04:28:45.288Z,22.23
2022-12-16T04:31:12.468Z,23.03
2022-12-16T04:33:59.082Z,23.47
2022-12-16T04:36:45.089Z,22.97
2022-12-16T04:39:30.939Z,23.10
2022-12-16T04:42:16.819Z,21.73
2022-12-16T04:45:02.386Z,21.90
2022-12-16T04:47:49.431Z,21.43
2022-12-16T04:50:36.817Z,21.53
2022-12-16T04:53:22.371Z,21.33
2022-12-16T04:56:07.950Z,21.07
2022-12-16T04:58:53.429Z,20.20
2022-12-16T05:01:38.929Z,21.80
2022-12-16T05:04:24.663Z,21.47
2022-12-16T05:07:12.143Z,20.23
2022-12-16T05:09:57.735Z,20.80
2022-12-16T05:12:43.012Z,21.63
2022-12-16T05:15:28.988Z,21.17
2022-12-16T05:18:14.469Z,22.03
2022-12-16T05:21:00.392Z,21.47
2022-12-16T05:23:47.829Z,22.53
2022-12-16T05:26:33.445Z,24.57
2022-12-16T05:29:18.899Z,22.07
2022-12-16T05:32:04.811Z,20.63
2022-12-16T05:34:51.175Z,20.20
2022-12-16T05:37:37.328Z,20.70
2022-12-16T05:40:23.958Z,20.03
2022-12-16T05:43:14.919Z,20.40
2022-12-16T05:46:02.266Z,19.63
2022-12-16T05:48:48.312Z,21.63
2022-12-16T05:51:34.349Z,24.13
2022-12-16T05:54:19.894Z,21.40
2022-12-16T05:57:05.457Z,21.27
2022-12-16T05:59:50.937Z,20.97
2022-12-16T06:02:56.400Z,21.77
2022-12-16T06:05:42.261Z,22.30
2022-12-16T06:08:28.152Z,21.57
2022-12-16T06:11:13.856Z,22.13
2022-12-16T06:13:59.360Z,21.07
2022-12-16T06:16:44.855Z,22.17
2022-12-16T06:19:30.583Z,22.57
2022-12-16T06:22:16.130Z,23.20
2022-12-16T06:25:01.842Z,21.60
2022-12-16T06:27:47.819Z,21.97
2022-12-16T06:30:34.282Z,22.03
2022-12-16T06:33:19.805Z,42.90
2022-12-16T06:36:05.541Z,26.73
2022-12-16T06:38:51.506Z,27.03
2022-12-16T06:41:37.541Z,20.63
2022-12-16T06:44:23.452Z,21.73
2022-12-16T06:47:09.292Z,20.80
2022-12-16T06:49:55.391Z,21.03
2022-12-16T06:52:41.279Z,20.90
2022-12-16T06:55:27.473Z,19.97
2022-12-16T06:58:19.592Z,21.63
2022-12-16T07:01:04.980Z,20.50
2022-12-16T07:03:51.037Z,22.53
2022-12-16T07:06:37.101Z,21.53
2022-12-16T07:09:22.920Z,28.10
2022-12-16T07:12:08.536Z,32.83
2022-12-16T07:14:54.826Z,21.73
2022-12-16T07:17:40.349Z,21.97
2022-12-16T07:20:37.688Z,21.53
2022-12-16T07:23:23.337Z,22.53
2022-12-16T07:26:09.059Z,20.83
2022-12-16T07:28:54.608Z,20.97
2022-12-16T07:31:40.963Z,21.07
2022-12-16T07:34:27.023Z,21.17
2022-12-16T07:37:12.685Z,21.10
2022-12-16T07:39:58.272Z,21.67
2022-12-16T07:42:43.669Z,21.80
2022-12-16T07:45:29.971Z,21.90
2022-12-16T07:48:15.672Z,23.07
2022-12-16T07:51:01.950Z,22.97
2022-12-16T07:53:48.085Z,22.50
2022-12-16T07:56:34.058Z,22.40
2022-12-16T07:59:20.024Z,29.43
2022-12-16T08:02:05.634Z,23.67
2022-12-16T08:04:51.387Z,23.90
2022-12-16T08:07:37.420Z,23.70
2022-12-16T08:10:23.669Z,25.40
2022-12-16T08:13:09.112Z,25.83
2022-12-16T08:15:54.829Z,25.87
2022-12-16T08:19:04.891Z,24.80
2022-12-16T08:21:53.380Z,24.23
2022-12-16T08:24:38.733Z,24.67
2022-12-16T08:27:24.709Z,26.60
2022-12-16T08:30:10.346Z,25.37
2022-12-16T08:32:59.631Z,24.47
2022-12-16T08:35:47.437Z,24.73
2022-12-16T08:38:32.993Z,23.77
2022-12-16T08:41:18.444Z,24.27
2022-12-16T08:44:04.026Z,24.43
2022-12-16T08:46:49.366Z,25.60
2022-12-16T08:49:34.966Z,23.00
2022-12-16T08:52:20.476Z,24.97
2022-12-16T08:55:05.955Z,24.37
2022-12-16T08:57:51.596Z,23.80
2022-12-16T09:00:37.555Z,24.47
2022-12-16T09:03:23.414Z,24.17
2022-12-16T09:06:09.653Z,45.43
2022-12-16T09:08:55.439Z,26.87
2022-12-16T09:11:55.521Z,28.27
2022-12-16T09:14:41.626Z,22.23
2022-12-16T09:17:27.200Z,23.03
2022-12-16T09:20:12.985Z,23.73
2022-12-16T09:22:58.559Z,23.20
2022-12-16T09:25:44.146Z,23.43
2022-12-16T09:28:30.184Z,24.33
2022-12-16T09:31:15.765Z,24.63
2022-12-16T09:34:01.616Z,22.43
2022-12-16T09:36:47.269Z,20.40
2022-12-16T09:39:32.957Z,21.63
2022-12-16T09:42:48.551Z,21.53
2022-12-16T09:46:05.434Z,21.43
2022-12-16T09:49:31.674Z,22.27
2022-12-16T09:52:19.299Z,50.63
2022-12-16T09:55:06.825Z,22.87
2022-12-16T09:57:55.541Z,24.23
2022-12-16T10:00:45.730Z,19.43
2022-12-16T10:03:48.696Z,20.33
2022-12-16T10:07:07.031Z,19.30
2022-12-16T10:10:37.713Z,20.23
2022-12-16T10:13:38.195Z,19.33
2022-12-16T10:16:58.481Z,20.93
2022-12-16T10:20:25.378Z,25.52
2022-12-16T10:23:44.717Z,24.40
2022-12-16T10:26:45.125Z,21.40
2022-12-16T10:29:40.224Z,21.83
2022-12-16T10:32:59.127Z,20.60
2022-12-16T10:36:11.897Z,18.07
2022-12-16T10:39:10.826Z,18.77
2022-12-16T10:42:05.500Z,18.77
2022-12-16T10:45:13.770Z,18.17
2022-12-16T10:47:59.541Z,20.23
2022-12-16T10:50:45.196Z,19.00
2022-12-16T10:53:44.675Z,19.17
2022-12-16T10:56:53.923Z,20.00
2022-12-16T10:59:40.072Z,19.13
2022-12-16T11:02:40.349Z,20.63
2022-12-16T11:05:49.292Z,18.80
2022-12-16T11:08:55.717Z,18.30
2022-12-16T11:11:44.522Z,37.67
2022-12-16T11:15:05.445Z,28.20
2022-12-16T11:17:47.857Z,18.47
2022-12-16T11:20:39.085Z,19.30
2022-12-16T11:23:36.561Z,18.67
2022-12-16T11:26:35.956Z,18.67
2022-12-16T11:29:35.199Z,18.53
2022-12-16T11:32:44.301Z,19.67
2022-12-16T11:35:38.592Z,18.47
2022-12-16T11:38:40.708Z,19.40
2022-12-16T11:41:37.485Z,20.13
2022-12-16T11:44:24.086Z,20.03
2022-12-16T11:47:10.244Z,19.17
2022-12-16T11:49:55.886Z,19.67
2022-12-16T11:52:41.875Z,19.47
2022-12-16T11:59:07.241Z,21.23
2022-12-16T12:02:10.155Z,20.03
2022-12-16T12:04:55.871Z,21.17
2022-12-16T12:08:02.540Z,28.67
2022-12-16T12:11:32.084Z,21.03
2022-12-16T12:14:42.763Z,19.73
2022-12-16T12:18:00.943Z,22.73
2022-12-16T12:21:12.581Z,21.90
2022-12-16T12:24:25.197Z,32.43
2022-12-16T12:27:46.117Z,26.63
2022-12-16T12:30:39.533Z,25.23
2022-12-16T12:33:34.661Z,22.23
2022-12-16T12:36:40.879Z,19.53
2022-12-16T12:39:50.716Z,20.80
2022-12-16T12:42:49.700Z,17.50
2022-12-16T12:45:42.466Z,17.20
2022-12-16T12:48:41.223Z,17.17
2022-12-16T12:51:52.331Z,17.33
2022-12-16T12:55:04.150Z,18.07
2022-12-16T12:57:53.653Z,19.23
2022-12-16T13:00:43.268Z,18.23
2022-12-16T13:03:59.387Z,17.07
2022-12-16T13:06:46.649Z,18.00
2022-12-16T13:09:52.826Z,17.33
2022-12-16T13:12:46.564Z,17.33
2022-12-16T13:15:56.564Z,18.33
2022-12-16T13:18:48.984Z,17.13
2022-12-16T13:21:58.297Z,20.47
2022-12-16T13:24:56.397Z,18.40
2022-12-16T13:27:44.301Z,18.60
2022-12-16T13:30:30.212Z,19.10
2022-12-16T13:33:25.519Z,17.67
2022-12-16T13:36:17.254Z,18.70
2022-12-16T13:39:10.389Z,18.10
2022-12-16T13:41:56.214Z,18.20
2022-12-16T13:45:15.724Z,17.83
2022-12-16T13:48:01.069Z,17.80
2022-12-16T13:51:01.976Z,19.23
2022-12-16T13:53:58.346Z,19.10
2022-12-16T13:56:53.945Z,19.53
2022-12-16T13:59:58.274Z,18.83
2022-12-16T14:02:59.606Z,20.33
2022-12-16T14:05:55.278Z,19.47
2022-12-16T14:08:45.215Z,18.83
2022-12-16T14:12:04.536Z,21.20
2022-12-16T14:15:07.493Z,21.13
2022-12-16T14:18:11.486Z,19.70
2022-12-16T14:21:09.462Z,24.60
2022-12-16T14:24:08.607Z,21.27
2022-12-16T14:26:55.461Z,21.37
2022-12-16T14:29:48.579Z,22.57
2022-12-16T14:32:51.718Z,21.63
2022-12-16T14:35:44.194Z,23.13
2022-12-16T14:38:46.513Z,23.60
2022-12-16T14:41:41.247Z,22.77
2022-12-16T14:44:41.604Z,25.37
2022-12-16T14:47:37.633Z,24.47
2022-12-16T14:50:45.112Z,25.63
2022-12-16T14:53:36.232Z,26.57
2022-12-16T14:56:41.680Z,27.03
2022-12-16T14:59:36.437Z,26.07
2022-12-16T15:02:58.012Z,28.40
2022-12-16T15:05:52.160Z,27.90
2022-12-16T15:08:39.963Z,30.23
2022-12-16T15:11:30.734Z,29.57
2022-12-16T15:14:20.832Z,29.57
2022-12-16T15:17:08.871Z,29.17
2022-12-16T15:20:08.413Z,30.03
2022-12-16T15:22:55.054Z,29.10
2022-12-16T15:25:44.184Z,36.13
2022-12-16T15:28:58.483Z,28.37
2022-12-16T15:31:55.954Z,29.07
2022-12-16T15:35:07.784Z,30.03
2022-12-16T15:38:04.195Z,30.20
2022-12-16T15:40:52.989Z,30.50
2022-12-16T15:43:56.140Z,31.67
2022-12-16T15:46:47.998Z,30.33
2022-12-16T15:50:03.813Z,30.13
2022-12-16T15:53:03.203Z,30.33
2022-12-16T15:55:50.454Z,29.30
2022-12-16T15:58:50.756Z,31.20
2022-12-16T16:01:44.082Z,31.97
2022-12-16T16:04:49.186Z,32.23
2022-12-16T16:07:40.022Z,31.40
2022-12-16T16:10:42.257Z,31.63
2022-12-16T16:13:28.870Z,31.30
2022-12-16T16:16:15.173Z,31.13
2022-12-16T16:19:01.861Z,33.10
2022-12-16T16:21:48.595Z,33.80
2022-12-16T16:24:35.617Z,33.00
2022-12-16T16:27:24.220Z,32.47
2022-12-16T16:30:09.892Z,32.00
2022-12-16T16:32:55.280Z,34.10
2022-12-16T16:35:40.758Z,32.43
2022-12-16T16:38:29.882Z,33.53
2022-12-16T16:41:16.393Z,33.67
2022-12-16T16:44:02.359Z,32.03
2022-12-16T16:46:59.175Z,33.80
2022-12-16T16:49:58.553Z,32.67
2022-12-16T16:52:46.142Z,31.03
2022-12-16T16:55:42.865Z,37.43
2022-12-16T16:58:46.901Z,31.83
2022-12-16T17:01:35.763Z,30.50
2022-12-16T17:04:22.304Z,30.60
2022-12-16T17:07:08.489Z,31.03
2022-12-16T17:09:54.175Z,30.77
2022-12-16T17:12:45.639Z,32.87
2022-12-16T17:15:37.017Z,31.50
2022-12-16T17:18:24.143Z,32.53
2022-12-16T17:21:11.526Z,32.47
2022-12-16T17:23:57.828Z,30.30
2022-12-16T17:26:43.975Z,30.43
2022-12-16T17:29:40.725Z,31.40
2022-12-16T17:32:27.937Z,30.07
2022-12-16T17:35:15.662Z,30.63
2022-12-16T17:38:02.263Z,29.63
2022-12-16T17:40:48.433Z,29.33
2022-12-16T17:43:35.067Z,29.27
2022-12-16T17:46:30.315Z,30.00
2022-12-16T17:49:17.905Z,30.43
2022-12-16T17:52:05.759Z,32.57
2022-12-16T17:54:52.267Z,43.60
2022-12-16T17:57:37.863Z,44.90
2022-12-16T18:00:24.847Z,43.87
2022-12-16T18:03:10.619Z,42.17
2022-12-16T18:05:56.915Z,32.27
2022-12-16T18:08:42.511Z,29.20
2022-12-16T18:11:28.060Z,27.87
2022-12-16T18:14:13.520Z,29.40
2022-12-16T18:17:00.036Z,28.87
2022-12-16T18:19:45.755Z,30.93
2022-12-16T18:22:31.558Z,27.93
2022-12-16T18:25:17.611Z,28.43
2022-12-16T18:28:03.374Z,26.70
2022-12-16T18:30:48.977Z,25.97
2022-12-16T18:33:35.599Z,31.15
2022-12-16T18:36:25.296Z,27.57
2022-12-16T18:39:10.760Z,26.50
2022-12-16T18:42:04.425Z,25.50
2022-12-16T18:44:53.814Z,26.10
2022-12-16T18:47:48.295Z,26.10
2022-12-16T18:50:38.263Z,26.00
2022-12-16T18:53:25.218Z,25.07
2022-12-16T18:56:29.858Z,24.53
2022-12-16T18:59:15.304Z,24.57
2022-12-16T19:02:00.879Z,22.73
2022-12-16T19:04:46.864Z,24.07
2022-12-16T19:07:33.976Z,22.43
2022-12-16T19:10:19.684Z,22.70
2022-12-16T19:13:05.281Z,22.43
2022-12-16T19:15:50.798Z,22.73
2022-12-16T19:18:36.953Z,23.53
2022-12-16T19:21:23.890Z,22.43
2022-12-16T19:24:17.382Z,24.40
2022-12-16T19:27:07.259Z,24.93
2022-12-16T19:29:55.962Z,24.23
2022-12-16T19:32:41.632Z,24.37
2022-12-16T19:35:27.496Z,22.97
2022-12-16T19:38:13.678Z,25.13
2022-12-16T19:41:09.706Z,23.43
2022-12-16T19:43:58.803Z,24.47
2022-12-16T19:46:55.997Z,24.93
2022-12-16T19:52:48.435Z,25.00
2022-12-16T19:55:34.807Z,25.13
2022-12-16T19:58:20.525Z,22.27
2022-12-16T20:01:06.177Z,22.80
2022-12-16T20:03:52.372Z,25.60
2022-12-16T20:06:42.487Z,24.90
2022-12-16T20:09:31.444Z,24.37
2022-12-16T20:12:19.849Z,24.63
2022-12-16T20:15:06.497Z,25.13
2022-12-16T20:17:56.133Z,24.30
2022-12-16T20:20:44.785Z,24.83
2022-12-16T20:23:35.933Z,24.97
2022-12-16T20:26:22.417Z,24.13
2022-12-16T20:29:08.900Z,24.80
2022-12-16T20:31:58.457Z,24.40
2022-12-16T20:34:44.275Z,23.50
2022-12-16T20:37:30.173Z,25.00
2022-12-16T20:40:15.654Z,23.80
2022-12-16T20:43:01.822Z,24.23
2022-12-16T20:45:47.985Z,24.97
2022-12-16T20:48:35.044Z,24.60
2022-12-16T20:51:26.805Z,24.67
2022-12-16T20:54:27.114Z,26.07
2022-12-16T20:57:13.121Z,25.60
2022-12-16T20:59:59.935Z,26.17
2022-12-16T21:02:46.392Z,25.57
2022-12-16T21:05:32.873Z,26.83
2022-12-16T21:08:19.344Z,24.93
2022-12-16T21:11:05.805Z,25.10
2022-12-16T21:13:52.020Z,26.13
2022-12-16T21:16:38.450Z,25.70
2022-12-16T21:19:27.988Z,26.57
2022-12-16T21:22:19.434Z,26.93
2022-12-16T21:25:05.797Z,28.33
2022-12-16T21:27:51.671Z,26.30
2022-12-16T21:30:39.250Z,33.00
2022-12-16T21:33:24.983Z,45.35
2022-12-16T21:36:12.716Z,40.33
2022-12-16T21:39:09.467Z,32.07
2022-12-16T21:41:55.518Z,29.33
2022-12-16T21:44:42.552Z,28.87
2022-12-16T21:47:28.127Z,27.97
2022-12-16T21:50:14.520Z,24.67
2022-12-16T21:53:01.424Z,24.87
2022-12-16T21:55:47.130Z,25.00
2022-12-16T21:58:32.774Z,27.20
2022-12-16T22:01:18.643Z,25.90
2022-12-16T22:04:04.882Z,25.83
2022-12-16T22:06:51.236Z,24.17
2022-12-16T22:09:37.361Z,25.67
2022-12-16T22:12:23.655Z,26.50
2022-12-16T22:15:09.948Z,25.50
2022-12-16T22:21:19.981Z,23.17
2022-12-16T22:24:06.263Z,22.60
2022-12-16T22:26:52.504Z,24.77
2022-12-16T22:29:39.311Z,23.90
2022-12-16T22:32:26.052Z,21.13
2022-12-16T22:35:11.804Z,21.53
2022-12-16T22:37:57.996Z,19.17
2022-12-16T22:40:43.880Z,18.57
2022-12-16T22:43:29.882Z,15.67
2022-12-16T22:46:20.762Z,14.63
2022-12-16T22:49:07.189Z,15.50
2022-12-16T22:51:53.956Z,16.60
2022-12-16T22:54:40.297Z,15.50
2022-12-16T22:57:26.624Z,17.00
2022-12-16T23:00:12.897Z,18.43
2022-12-16T23:02:58.472Z,19.13
2022-12-16T23:05:44.218Z,18.27
2022-12-16T23:08:30.259Z,16.30
2022-12-16T23:11:18.338Z,17.03
2022-12-16T23:14:04.699Z,17.67
2022-12-16T23:16:50.918Z,17.90
2022-12-16T23:19:52.899Z,18.93
2022-12-16T23:22:56.448Z,16.43
2022-12-16T23:25:42.246Z,15.93
2022-12-16T23:28:28.527Z,14.83
2022-12-16T23:31:16.323Z,16.00
2022-12-16T23:34:02.942Z,14.67
2022-12-16T23:36:49.069Z,15.67
2022-12-16T23:39:35.389Z,16.03
2022-12-16T23:42:21.133Z,16.47
2022-12-16T23:45:06.762Z,13.20
2022-12-16T23:47:52.920Z,15.90
2022-12-16T23:50:42.097Z,16.60
2022-12-16T23:53:34.768Z,14.27
2022-12-16T23:56:21.210Z,14.57
2022-12-16T23:59:07.597Z,15.07
